sensor_id;sensor_type;location;lat;lon;timestamp;pressure;altitude;pressure_sealevel;temperature
27986;BMP280;15453;53.692;10.168;2023-09-08T00:02:10;101850.59;;;23.65
27986;BMP280;15453;53.692;10.168;2023-09-08T00:04:36;101842.81;;;23.62
27986;BMP280;15453;53.692;10.168;2023-09-08T00:07:01;101843.97;;;23.61
27986;BMP280;15453;53.692;10.168;2023-09-08T00:09:27;101841.19;;;23.61
27986;BMP280;15453;53.692;10.168;2023-09-08T00:11:52;101854.03;;;23.62
27986;BMP280;15453;53.692;10.168;2023-09-08T00:14:19;101847.91;;;23.60
27986;BMP280;15453;53.692;10.168;2023-09-08T00:16:44;101847.91;;;23.60
27986;BMP280;15453;53.692;10.168;2023-09-08T00:19:10;101839.31;;;23.57
27986;BMP280;15453;53.692;10.168;2023-09-08T00:21:36;101848.53;;;23.57
27986;BMP280;15453;53.692;10.168;2023-09-08T00:24:01;101848.53;;;23.57
27986;BMP280;15453;53.692;10.168;2023-09-08T00:26:26;101849.25;;;23.49
27986;BMP280;15453;53.692;10.168;2023-09-08T00:28:52;101838.69;;;23.46
27986;BMP280;15453;53.692;10.168;2023-09-08T00:31:17;101841.56;;;23.41
27986;BMP280;15453;53.692;10.168;2023-09-08T00:33:42;101841.56;;;23.41
27986;BMP280;15453;53.692;10.168;2023-09-08T00:36:09;101831.94;;;23.34
27986;BMP280;15453;53.692;10.168;2023-09-08T00:38:34;101826.13;;;23.30
27986;BMP280;15453;53.692;10.168;2023-09-08T00:40:59;101824.25;;;23.26
27986;BMP280;15453;53.692;10.168;2023-09-08T00:43:26;101823.22;;;23.22
27986;BMP280;15453;53.692;10.168;2023-09-08T00:45:52;101826.91;;;23.17
27986;BMP280;15453;53.692;10.168;2023-09-08T00:48:18;101825.56;;;23.15
27986;BMP280;15453;53.692;10.168;2023-09-08T00:50:44;101824.50;;;23.11
27986;BMP280;15453;53.692;10.168;2023-09-08T00:53:10;101820.97;;;23.05
27986;BMP280;15453;53.692;10.168;2023-09-08T00:55:35;101822.41;;;23.03
27986;BMP280;15453;53.692;10.168;2023-09-08T00:58:01;101816.91;;;22.98
27986;BMP280;15453;53.692;10.168;2023-09-08T01:00:27;101820.84;;;22.97
27986;BMP280;15453;53.692;10.168;2023-09-08T01:02:52;101820.84;;;22.97
27986;BMP280;15453;53.692;10.168;2023-09-08T01:05:18;101808.41;;;22.89
27986;BMP280;15453;53.692;10.168;2023-09-08T01:07:44;101816.25;;;22.87
27986;BMP280;15453;53.692;10.168;2023-09-08T01:10:10;101814.88;;;22.85
27986;BMP280;15453;53.692;10.168;2023-09-08T01:12:35;101818.63;;;22.80
27986;BMP280;15453;53.692;10.168;2023-09-08T01:15:02;101811.69;;;22.78
27986;BMP280;15453;53.692;10.168;2023-09-08T01:17:28;101817.88;;;22.75
27986;BMP280;15453;53.692;10.168;2023-09-08T01:20:00;101817.88;;;22.75
27986;BMP280;15453;53.692;10.168;2023-09-08T01:27:37;101809.13;;;22.63
27986;BMP280;15453;53.692;10.168;2023-09-08T01:30:04;101801.34;;;22.60
27986;BMP280;15453;53.692;10.168;2023-09-08T01:32:30;101808.06;;;22.59
27986;BMP280;15453;53.692;10.168;2023-09-08T01:34:58;101805.88;;;22.56
27986;BMP280;15453;53.692;10.168;2023-09-08T01:37:24;101804.53;;;22.53
27986;BMP280;15453;53.692;10.168;2023-09-08T01:39:49;101804.31;;;22.50
27986;BMP280;15453;53.692;10.168;2023-09-08T01:42:14;101803.75;;;22.48
27986;BMP280;15453;53.692;10.168;2023-09-08T01:44:40;101798.78;;;22.45
27986;BMP280;15453;53.692;10.168;2023-09-08T01:47:05;101796.88;;;22.40
27986;BMP280;15453;53.692;10.168;2023-09-08T01:54:33;101794.84;;;22.27
27986;BMP280;15453;53.692;10.168;2023-09-08T01:56:58;101794.84;;;22.27
27986;BMP280;15453;53.692;10.168;2023-09-08T01:59:23;101788.81;;;22.20
27986;BMP280;15453;53.692;10.168;2023-09-08T02:01:49;101788.59;;;22.17
27986;BMP280;15453;53.692;10.168;2023-09-08T02:04:14;101790.03;;;22.14
27986;BMP280;15453;53.692;10.168;2023-09-08T02:06:39;101790.03;;;22.14
27986;BMP280;15453;53.692;10.168;2023-09-08T02:09:04;101792.88;;;22.09
27986;BMP280;15453;53.692;10.168;2023-09-08T02:11:30;101792.88;;;22.09
27986;BMP280;15453;53.692;10.168;2023-09-08T02:13:55;101789.63;;;22.02
27986;BMP280;15453;53.692;10.168;2023-09-08T02:16:20;101781.56;;;22.00
27986;BMP280;15453;53.692;10.168;2023-09-08T02:18:45;101782.16;;;21.97
27986;BMP280;15453;53.692;10.168;2023-09-08T02:21:11;101777.19;;;21.94
27986;BMP280;15453;53.692;10.168;2023-09-08T02:23:36;101774.69;;;21.93
27986;BMP280;15453;53.692;10.168;2023-09-08T02:26:01;101779.72;;;21.91
27986;BMP280;15453;53.692;10.168;2023-09-08T02:28:27;101771.97;;;21.88
27986;BMP280;15453;53.692;10.168;2023-09-08T02:30:52;101789.81;;;21.87
27986;BMP280;15453;53.692;10.168;2023-09-08T02:33:17;101789.81;;;21.87
27986;BMP280;15453;53.692;10.168;2023-09-08T02:35:43;101783.50;;;21.81
27986;BMP280;15453;53.692;10.168;2023-09-08T02:38:08;101774.09;;;21.77
27986;BMP280;15453;53.692;10.168;2023-09-08T02:40:33;101781.91;;;21.75
27986;BMP280;15453;53.692;10.168;2023-09-08T02:43:03;101783.03;;;21.74
27986;BMP280;15453;53.692;10.168;2023-09-08T02:45:28;101772.75;;;21.70
27986;BMP280;15453;53.692;10.168;2023-09-08T02:47:54;101775.81;;;21.68
27986;BMP280;15453;53.692;10.168;2023-09-08T02:50:19;101772.81;;;21.65
27986;BMP280;15453;53.692;10.168;2023-09-08T02:52:45;101769.78;;;21.61
27986;BMP280;15453;53.692;10.168;2023-09-08T02:55:11;101770.09;;;21.60
27986;BMP280;15453;53.692;10.168;2023-09-08T02:57:38;101763.16;;;21.57
27986;BMP280;15453;53.692;10.168;2023-09-08T03:00:05;101768.47;;;21.54
27986;BMP280;15453;53.692;10.168;2023-09-08T03:02:32;101772.38;;;21.53
27986;BMP280;15453;53.692;10.168;2023-09-08T03:04:57;101773.31;;;21.48
27986;BMP280;15453;53.692;10.168;2023-09-08T03:07:23;101767.47;;;21.45
27986;BMP280;15453;53.692;10.168;2023-09-08T03:09:48;101767.25;;;21.41
27986;BMP280;15453;53.692;10.168;2023-09-08T03:12:14;101769.50;;;21.39
27986;BMP280;15453;53.692;10.168;2023-09-08T03:14:39;101772.88;;;21.36
27986;BMP280;15453;53.692;10.168;2023-09-08T03:17:04;101773.47;;;21.33
27986;BMP280;15453;53.692;10.168;2023-09-08T03:19:30;101778.81;;;21.30
27986;BMP280;15453;53.692;10.168;2023-09-08T03:21:55;101771.03;;;21.27
27986;BMP280;15453;53.692;10.168;2023-09-08T03:24:21;101772.97;;;21.26
27986;BMP280;15453;53.692;10.168;2023-09-08T03:26:46;101763.53;;;21.22
27986;BMP280;15453;53.692;10.168;2023-09-08T03:29:11;101764.97;;;21.20
27986;BMP280;15453;53.692;10.168;2023-09-08T03:31:37;101760.00;;;21.17
27986;BMP280;15453;53.692;10.168;2023-09-08T03:34:02;101757.81;;;21.14
27986;BMP280;15453;53.692;10.168;2023-09-08T03:36:27;101754.47;;;21.12
27986;BMP280;15453;53.692;10.168;2023-09-08T03:38:53;101766.22;;;21.09
27986;BMP280;15453;53.692;10.168;2023-09-08T03:41:18;101756.50;;;21.06
27986;BMP280;15453;53.692;10.168;2023-09-08T03:43:43;101760.69;;;21.04
27986;BMP280;15453;53.692;10.168;2023-09-08T03:46:09;101751.28;;;21.00
27986;BMP280;15453;53.692;10.168;2023-09-08T03:48:34;101748.78;;;20.98
27986;BMP280;15453;53.692;10.168;2023-09-08T03:50:59;101745.44;;;20.96
27986;BMP280;15453;53.692;10.168;2023-09-08T03:53:25;101739.66;;;20.93
27986;BMP280;15453;53.692;10.168;2023-09-08T03:55:50;101742.72;;;20.91
27986;BMP280;15453;53.692;10.168;2023-09-08T03:58:16;101746.88;;;20.89
27986;BMP280;15453;53.692;10.168;2023-09-08T04:00:41;101744.97;;;20.84
27986;BMP280;15453;53.692;10.168;2023-09-08T04:03:07;101746.94;;;20.84
27986;BMP280;15453;53.692;10.168;2023-09-08T04:05:32;101747.53;;;20.81
27986;BMP280;15453;53.692;10.168;2023-09-08T04:07:57;101737.81;;;20.78
27986;BMP280;15453;53.692;10.168;2023-09-08T04:10:23;101736.44;;;20.76
27986;BMP280;15453;53.692;10.168;2023-09-08T04:12:48;101735.88;;;20.74
27986;BMP280;15453;53.692;10.168;2023-09-08T04:15:13;101740.09;;;20.71
27986;BMP280;15453;53.692;10.168;2023-09-08T04:17:39;101753.47;;;20.69
27986;BMP280;15453;53.692;10.168;2023-09-08T04:20:05;101753.47;;;20.69
27986;BMP280;15453;53.692;10.168;2023-09-08T04:22:31;101744.06;;;20.65
27986;BMP280;15453;53.692;10.168;2023-09-08T04:24:56;101737.13;;;20.63
27986;BMP280;15453;53.692;10.168;2023-09-08T04:27:22;101729.34;;;20.60
27986;BMP280;15453;53.692;10.168;2023-09-08T04:29:48;101736.31;;;20.57
27986;BMP280;15453;53.692;10.168;2023-09-08T04:32:13;101739.41;;;20.56
27986;BMP280;15453;53.692;10.168;2023-09-08T04:34:40;101739.41;;;20.56
27986;BMP280;15453;53.692;10.168;2023-09-08T04:37:05;101737.47;;;20.51
27986;BMP280;15453;53.692;10.168;2023-09-08T04:39:32;101730.53;;;20.49
27986;BMP280;15453;53.692;10.168;2023-09-08T04:41:59;101733.63;;;20.47
27986;BMP280;15453;53.692;10.168;2023-09-08T04:44:24;101725.59;;;20.46
27986;BMP280;15453;53.692;10.168;2023-09-08T04:46:51;101726.16;;;20.43
27986;BMP280;15453;53.692;10.168;2023-09-08T04:49:16;101729.50;;;20.40
27986;BMP280;15453;53.692;10.168;2023-09-08T04:51:41;101720.63;;;20.38
27986;BMP280;15453;53.692;10.168;2023-09-08T04:54:07;101723.72;;;20.36
27986;BMP280;15453;53.692;10.168;2023-09-08T04:56:32;101712.88;;;20.35
27986;BMP280;15453;53.692;10.168;2023-09-08T04:58:57;101716.78;;;20.34
27986;BMP280;15453;53.692;10.168;2023-09-08T05:01:25;101715.66;;;20.35
27986;BMP280;15453;53.692;10.168;2023-09-08T05:03:51;101715.66;;;20.35
27986;BMP280;15453;53.692;10.168;2023-09-08T05:06:17;101710.13;;;20.30
27986;BMP280;15453;53.692;10.168;2023-09-08T05:08:43;101705.66;;;20.29
27986;BMP280;15453;53.692;10.168;2023-09-08T05:11:09;101704.00;;;20.28
27986;BMP280;15453;53.692;10.168;2023-09-08T05:13:34;101706.78;;;20.28
27986;BMP280;15453;53.692;10.168;2023-09-08T05:15:59;101704.28;;;20.26
27986;BMP280;15453;53.692;10.168;2023-09-08T05:18:35;101705.13;;;20.27
27986;BMP280;15453;53.692;10.168;2023-09-08T05:21:00;101707.63;;;20.28
27986;BMP280;15453;53.692;10.168;2023-09-08T05:23:26;101705.38;;;20.30
27986;BMP280;15453;53.692;10.168;2023-09-08T05:25:51;101705.38;;;20.30
27986;BMP280;15453;53.692;10.168;2023-09-08T05:28:16;101712.34;;;20.28
27986;BMP280;15453;53.692;10.168;2023-09-08T05:30:41;101717.63;;;20.29
27986;BMP280;15453;53.692;10.168;2023-09-08T05:33:07;101713.72;;;20.35
27986;BMP280;15453;53.692;10.168;2023-09-08T05:35:32;101713.72;;;20.35
27986;BMP280;15453;53.692;10.168;2023-09-08T05:37:59;101713.72;;;20.35
27986;BMP280;15453;53.692;10.168;2023-09-08T05:40:24;101706.72;;;20.38
27986;BMP280;15453;53.692;10.168;2023-09-08T05:42:49;101707.25;;;20.40
27986;BMP280;15453;53.692;10.168;2023-09-08T05:45:14;101698.31;;;20.43
27986;BMP280;15453;53.692;10.168;2023-09-08T05:47:40;101699.97;;;20.44
27986;BMP280;15453;53.692;10.168;2023-09-08T05:50:05;101697.75;;;20.46
27986;BMP280;15453;53.692;10.168;2023-09-08T05:52:32;101711.34;;;20.52
27986;BMP280;15453;53.692;10.168;2023-09-08T05:55:01;101711.34;;;20.52
27986;BMP280;15453;53.692;10.168;2023-09-08T05:57:27;101704.41;;;20.50
27986;BMP280;15453;53.692;10.168;2023-09-08T05:59:53;101704.63;;;20.53
27986;BMP280;15453;53.692;10.168;2023-09-08T06:02:18;101694.88;;;20.56
27986;BMP280;15453;53.692;10.168;2023-09-08T06:04:43;101705.88;;;20.66
27986;BMP280;15453;53.692;10.168;2023-09-08T06:07:09;101708.09;;;20.69
27986;BMP280;15453;53.692;10.168;2023-09-08T06:09:36;101708.09;;;20.69
27986;BMP280;15453;53.692;10.168;2023-09-08T06:12:01;101699.75;;;20.69
27986;BMP280;15453;53.692;10.168;2023-09-08T06:14:27;101711.97;;;20.73
27986;BMP280;15453;53.692;10.168;2023-09-08T06:16:52;101703.84;;;20.76
27986;BMP280;15453;53.692;10.168;2023-09-08T06:19:17;101703.97;;;20.90
27986;BMP280;15453;53.692;10.168;2023-09-08T06:21:42;101703.97;;;20.90
27986;BMP280;15453;53.692;10.168;2023-09-08T06:24:08;101695.88;;;20.93
27986;BMP280;15453;53.692;10.168;2023-09-08T06:26:33;101701.44;;;20.98
27986;BMP280;15453;53.692;10.168;2023-09-08T06:28:58;101698.28;;;21.05
27986;BMP280;15453;53.692;10.168;2023-09-08T06:31:24;101696.81;;;21.12
27986;BMP280;15453;53.692;10.168;2023-09-08T06:33:49;101699.22;;;21.19
27986;BMP280;15453;53.692;10.168;2023-09-08T06:36:17;101706.94;;;21.27
27986;BMP280;15453;53.692;10.168;2023-09-08T06:38:42;101714.00;;;21.43
27986;BMP280;15453;53.692;10.168;2023-09-08T06:41:11;101714.00;;;21.43
27986;BMP280;15453;53.692;10.168;2023-09-08T06:43:37;101714.75;;;21.48
27986;BMP280;15453;53.692;10.168;2023-09-08T06:46:03;101706.03;;;21.55
27986;BMP280;15453;53.692;10.168;2023-09-08T06:48:28;101704.81;;;21.61
27986;BMP280;15453;53.692;10.168;2023-09-08T06:50:54;101708.88;;;21.68
27986;BMP280;15453;53.692;10.168;2023-09-08T06:53:24;101711.38;;;21.75
27986;BMP280;15453;53.692;10.168;2023-09-08T06:55:49;101712.94;;;21.81
27986;BMP280;15453;53.692;10.168;2023-09-08T06:58:15;101699.75;;;21.86
27986;BMP280;15453;53.692;10.168;2023-09-08T07:00:41;101698.84;;;21.91
27986;BMP280;15453;53.692;10.168;2023-09-08T07:03:06;101708.81;;;21.97
27986;BMP280;15453;53.692;10.168;2023-09-08T07:05:33;101701.50;;;22.01
27986;BMP280;15453;53.692;10.168;2023-09-08T07:07:58;101702.25;;;22.07
27986;BMP280;15453;53.692;10.168;2023-09-08T07:10:24;101697.72;;;22.11
27986;BMP280;15453;53.692;10.168;2023-09-08T07:12:49;101697.34;;;22.17
27986;BMP280;15453;53.692;10.168;2023-09-08T07:15:15;101694.47;;;22.22
27986;BMP280;15453;53.692;10.168;2023-09-08T07:17:40;101700.78;;;22.28
27986;BMP280;15453;53.692;10.168;2023-09-08T07:20:05;101695.13;;;22.33
27986;BMP280;15453;53.692;10.168;2023-09-08T07:22:31;101703.41;;;22.38
27986;BMP280;15453;53.692;10.168;2023-09-08T07:24:56;101705.81;;;22.44
27986;BMP280;15453;53.692;10.168;2023-09-08T07:27:22;101701.31;;;22.48
27986;BMP280;15453;53.692;10.168;2023-09-08T07:29:47;101706.50;;;22.55
27986;BMP280;15453;53.692;10.168;2023-09-08T07:32:14;101701.94;;;22.59
27986;BMP280;15453;53.692;10.168;2023-09-08T07:34:40;101698.91;;;22.74
27986;BMP280;15453;53.692;10.168;2023-09-08T07:37:05;101698.91;;;22.74
27986;BMP280;15453;53.692;10.168;2023-09-08T07:39:30;101695.81;;;22.75
27986;BMP280;15453;53.692;10.168;2023-09-08T07:41:57;101712.25;;;22.90
27986;BMP280;15453;53.692;10.168;2023-09-08T07:44:22;101712.25;;;22.90
27986;BMP280;15453;53.692;10.168;2023-09-08T07:46:48;101710.00;;;22.92
27986;BMP280;15453;53.692;10.168;2023-09-08T07:49:16;101699.75;;;23.01
27986;BMP280;15453;53.692;10.168;2023-09-08T07:51:44;101705.03;;;23.16
27986;BMP280;15453;53.692;10.168;2023-09-08T07:54:10;101696.28;;;23.23
27986;BMP280;15453;53.692;10.168;2023-09-08T07:56:35;101696.28;;;23.23
27986;BMP280;15453;53.692;10.168;2023-09-08T07:59:01;101701.38;;;23.34
27986;BMP280;15453;53.692;10.168;2023-09-08T08:01:26;101701.38;;;23.34
27986;BMP280;15453;53.692;10.168;2023-09-08T08:03:51;101697.19;;;23.45
27986;BMP280;15453;53.692;10.168;2023-09-08T08:06:17;101697.19;;;23.45
27986;BMP280;15453;53.692;10.168;2023-09-08T08:08:42;101695.44;;;23.49
27986;BMP280;15453;53.692;10.168;2023-09-08T08:11:13;101693.34;;;23.55
27986;BMP280;15453;53.692;10.168;2023-09-08T08:13:39;101687.34;;;23.61
27986;BMP280;15453;53.692;10.168;2023-09-08T08:16:04;101690.53;;;23.68
27986;BMP280;15453;53.692;10.168;2023-09-08T08:18:29;101692.91;;;23.75
27986;BMP280;15453;53.692;10.168;2023-09-08T08:20:54;101690.84;;;23.80
27986;BMP280;15453;53.692;10.168;2023-09-08T08:23:20;101691.56;;;23.86
27986;BMP280;15453;53.692;10.168;2023-09-08T08:25:45;101679.13;;;23.92
27986;BMP280;15453;53.692;10.168;2023-09-08T08:28:10;101689.03;;;23.98
27986;BMP280;15453;53.692;10.168;2023-09-08T08:30:38;101686.63;;;24.05
27986;BMP280;15453;53.692;10.168;2023-09-08T08:33:04;101694.59;;;24.11
27986;BMP280;15453;53.692;10.168;2023-09-08T08:35:29;101695.84;;;24.19
27986;BMP280;15453;53.692;10.168;2023-09-08T08:37:57;101698.69;;;24.27
27986;BMP280;15453;53.692;10.168;2023-09-08T08:40:22;101693.50;;;24.43
27986;BMP280;15453;53.692;10.168;2023-09-08T08:42:54;101693.50;;;24.43
27986;BMP280;15453;53.692;10.168;2023-09-08T08:45:22;101694.22;;;24.48
27986;BMP280;15453;53.692;10.168;2023-09-08T08:47:49;101695.19;;;24.66
27986;BMP280;15453;53.692;10.168;2023-09-08T08:50:14;101695.19;;;24.66
27986;BMP280;15453;53.692;10.168;2023-09-08T08:52:42;101682.22;;;24.70
27986;BMP280;15453;53.692;10.168;2023-09-08T08:55:07;101679.75;;;24.77
27986;BMP280;15453;53.692;10.168;2023-09-08T08:57:34;101675.69;;;24.83
27986;BMP280;15453;53.692;10.168;2023-09-08T09:00:00;101683.69;;;24.98
27986;BMP280;15453;53.692;10.168;2023-09-08T09:02:28;101690.78;;;25.04
27986;BMP280;15453;53.692;10.168;2023-09-08T09:04:53;101683.38;;;25.08
27986;BMP280;15453;53.692;10.168;2023-09-08T09:07:20;101683.38;;;25.08
27986;BMP280;15453;53.692;10.168;2023-09-08T09:09:45;101679.09;;;25.10
27986;BMP280;15453;53.692;10.168;2023-09-08T09:12:10;101675.34;;;25.15
27986;BMP280;15453;53.692;10.168;2023-09-08T09:14:36;101676.84;;;25.21
27986;BMP280;15453;53.692;10.168;2023-09-08T09:17:01;101663.81;;;25.25
27986;BMP280;15453;53.692;10.168;2023-09-08T09:19:29;101668.97;;;25.31
27986;BMP280;15453;53.692;10.168;2023-09-08T09:21:57;101672.94;;;25.39
27986;BMP280;15453;53.692;10.168;2023-09-08T09:27:06;101666.91;;;25.54
27986;BMP280;15453;53.692;10.168;2023-09-08T09:29:33;101663.75;;;25.64
27986;BMP280;15453;53.692;10.168;2023-09-08T09:32:07;101660.16;;;25.72
27986;BMP280;15453;53.692;10.168;2023-09-08T09:34:36;101659.34;;;25.80
27986;BMP280;15453;53.692;10.168;2023-09-08T09:37:12;101658.41;;;26.01
27986;BMP280;15453;53.692;10.168;2023-09-08T09:39:37;101658.41;;;26.01
27986;BMP280;15453;53.692;10.168;2023-09-08T09:42:03;101653.59;;;26.19
27986;BMP280;15453;53.692;10.168;2023-09-08T09:44:29;101649.28;;;26.30
27986;BMP280;15453;53.692;10.168;2023-09-08T09:46:54;101649.28;;;26.30
27986;BMP280;15453;53.692;10.168;2023-09-08T09:49:20;101642.66;;;26.34
27986;BMP280;15453;53.692;10.168;2023-09-08T09:51:50;101636.22;;;26.42
27986;BMP280;15453;53.692;10.168;2023-09-08T09:54:16;101650.06;;;26.64
27986;BMP280;15453;53.692;10.168;2023-09-08T09:56:42;101646.41;;;26.73
27986;BMP280;15453;53.692;10.168;2023-09-08T09:59:09;101646.41;;;26.73
27986;BMP280;15453;53.692;10.168;2023-09-08T10:01:35;101634.97;;;26.77
27986;BMP280;15453;53.692;10.168;2023-09-08T10:04:02;101638.09;;;26.85
27986;BMP280;15453;53.692;10.168;2023-09-08T10:06:34;101641.69;;;26.94
27986;BMP280;15453;53.692;10.168;2023-09-08T10:09:00;101630.38;;;27.11
27986;BMP280;15453;53.692;10.168;2023-09-08T10:11:55;101630.38;;;27.11
27986;BMP280;15453;53.692;10.168;2023-09-08T10:14:19;101629.34;;;27.15
27986;BMP280;15453;53.692;10.168;2023-09-08T10:16:48;101627.22;;;27.12
27986;BMP280;15453;53.692;10.168;2023-09-08T10:19:17;101628.13;;;27.33
27986;BMP280;15453;53.692;10.168;2023-09-08T10:21:45;101623.59;;;27.41
27986;BMP280;15453;53.692;10.168;2023-09-08T10:24:15;101627.53;;;27.48
27986;BMP280;15453;53.692;10.168;2023-09-08T10:26:44;101625.47;;;27.57
27986;BMP280;15453;53.692;10.168;2023-09-08T10:29:10;101620.94;;;27.65
27986;BMP280;15453;53.692;10.168;2023-09-08T10:31:36;101620.06;;;27.73
27986;BMP280;15453;53.692;10.168;2023-09-08T10:34:02;101624.50;;;27.82
27986;BMP280;15453;53.692;10.168;2023-09-08T10:36:28;101620.78;;;27.90
27986;BMP280;15453;53.692;10.168;2023-09-08T10:38:53;101619.50;;;28.00
27986;BMP280;15453;53.692;10.168;2023-09-08T10:41:26;101608.19;;;28.08
27986;BMP280;15453;53.692;10.168;2023-09-08T10:43:57;101612.91;;;28.16
27986;BMP280;15453;53.692;10.168;2023-09-08T10:46:23;101606.38;;;28.24
27986;BMP280;15453;53.692;10.168;2023-09-08T10:48:49;101599.91;;;28.44
27986;BMP280;15453;53.692;10.168;2023-09-08T10:51:15;101599.91;;;28.44
27986;BMP280;15453;53.692;10.168;2023-09-08T10:53:41;101599.66;;;28.49
27986;BMP280;15453;53.692;10.168;2023-09-08T10:56:07;101593.91;;;28.58
27986;BMP280;15453;53.692;10.168;2023-09-08T10:58:34;101601.59;;;28.69
27986;BMP280;15453;53.692;10.168;2023-09-08T11:01:02;101600.78;;;28.81
27986;BMP280;15453;53.692;10.168;2023-09-08T11:06:06;101599.38;;;28.99
27986;BMP280;15453;53.692;10.168;2023-09-08T11:08:41;101596.13;;;29.09
27986;BMP280;15453;53.692;10.168;2023-09-08T11:11:07;101587.06;;;29.15
27986;BMP280;15453;53.692;10.168;2023-09-08T11:13:33;101580.22;;;29.28
27986;BMP280;15453;53.692;10.168;2023-09-08T11:15:58;101574.91;;;29.39
27986;BMP280;15453;53.692;10.168;2023-09-08T11:20:53;101583.59;;;29.58
27986;BMP280;15453;53.692;10.168;2023-09-08T11:23:18;101589.56;;;29.68
27986;BMP280;15453;53.692;10.168;2023-09-08T11:25:44;101579.78;;;29.78
27986;BMP280;15453;53.692;10.168;2023-09-08T11:28:09;101586.94;;;29.87
27986;BMP280;15453;53.692;10.168;2023-09-08T11:30:35;101591.25;;;29.97
27986;BMP280;15453;53.692;10.168;2023-09-08T11:33:01;101587.09;;;30.06
27986;BMP280;15453;53.692;10.168;2023-09-08T11:35:27;101587.44;;;30.17
27986;BMP280;15453;53.692;10.168;2023-09-08T11:37:52;101578.41;;;30.27
27986;BMP280;15453;53.692;10.168;2023-09-08T11:40:20;101572.59;;;30.35
27986;BMP280;15453;53.692;10.168;2023-09-08T11:42:47;101574.06;;;30.45
27986;BMP280;15453;53.692;10.168;2023-09-08T11:45:13;101566.59;;;30.52
27986;BMP280;15453;53.692;10.168;2023-09-08T11:47:40;101568.78;;;30.59
27986;BMP280;15453;53.692;10.168;2023-09-08T11:50:07;101570.63;;;30.67
27986;BMP280;15453;53.692;10.168;2023-09-08T11:52:32;101568.81;;;30.74
27986;BMP280;15453;53.692;10.168;2023-09-08T11:54:58;101575.94;;;30.84
27986;BMP280;15453;53.692;10.168;2023-09-08T11:57:23;101581.75;;;30.91
27986;BMP280;15453;53.692;10.168;2023-09-08T11:59:49;101571.47;;;30.98
27986;BMP280;15453;53.692;10.168;2023-09-08T12:02:15;101572.44;;;31.06
27986;BMP280;15453;53.692;10.168;2023-09-08T12:04:40;101566.56;;;31.14
27986;BMP280;15453;53.692;10.168;2023-09-08T12:07:12;101574.44;;;31.21
27986;BMP280;15453;53.692;10.168;2023-09-08T12:09:41;101570.59;;;31.29
27986;BMP280;15453;53.692;10.168;2023-09-08T12:12:16;101569.56;;;31.37
27986;BMP280;15453;53.692;10.168;2023-09-08T12:14:41;101564.09;;;31.44
27986;BMP280;15453;53.692;10.168;2023-09-08T12:17:07;101562.69;;;31.54
27986;BMP280;15453;53.692;10.168;2023-09-08T12:19:33;101560.03;;;31.61
27986;BMP280;15453;53.692;10.168;2023-09-08T12:22:04;101561.34;;;31.67
27986;BMP280;15453;53.692;10.168;2023-09-08T12:27:19;101563.78;;;31.84
27986;BMP280;15453;53.692;10.168;2023-09-08T12:32:20;101558.91;;;32.03
27986;BMP280;15453;53.692;10.168;2023-09-08T12:34:45;101561.16;;;32.13
27986;BMP280;15453;53.692;10.168;2023-09-08T12:37:11;101548.88;;;32.28
27986;BMP280;15453;53.692;10.168;2023-09-08T12:39:39;101548.88;;;32.28
27986;BMP280;15453;53.692;10.168;2023-09-08T12:42:05;101540.47;;;32.32
27986;BMP280;15453;53.692;10.168;2023-09-08T12:44:30;101533.28;;;32.38
27986;BMP280;15453;53.692;10.168;2023-09-08T12:46:56;101530.13;;;32.43
27986;BMP280;15453;53.692;10.168;2023-09-08T12:49:21;101538.09;;;32.56
27986;BMP280;15453;53.692;10.168;2023-09-08T12:51:46;101538.09;;;32.56
27986;BMP280;15453;53.692;10.168;2023-09-08T12:54:11;101521.91;;;32.57
27986;BMP280;15453;53.692;10.168;2023-09-08T12:56:37;101518.28;;;32.60
27986;BMP280;15453;53.692;10.168;2023-09-08T12:59:02;101520.91;;;32.72
27986;BMP280;15453;53.692;10.168;2023-09-08T13:01:28;101520.91;;;32.72
27986;BMP280;15453;53.692;10.168;2023-09-08T13:03:54;101524.59;;;32.72
27986;BMP280;15453;53.692;10.168;2023-09-08T13:06:19;101514.13;;;32.76
27986;BMP280;15453;53.692;10.168;2023-09-08T13:08:45;101512.97;;;32.81
27986;BMP280;15453;53.692;10.168;2023-09-08T13:11:10;101517.91;;;32.84
27986;BMP280;15453;53.692;10.168;2023-09-08T13:13:38;101513.47;;;32.86
27986;BMP280;15453;53.692;10.168;2023-09-08T13:16:04;101508.69;;;32.90
27986;BMP280;15453;53.692;10.168;2023-09-08T13:18:29;101505.47;;;32.92
27986;BMP280;15453;53.692;10.168;2023-09-08T13:21:00;101509.19;;;32.96
27986;BMP280;15453;53.692;10.168;2023-09-08T13:23:26;101497.88;;;32.99
27986;BMP280;15453;53.692;10.168;2023-09-08T13:25:51;101499.56;;;33.04
27986;BMP280;15453;53.692;10.168;2023-09-08T13:28:16;101506.50;;;33.06
27986;BMP280;15453;53.692;10.168;2023-09-08T13:30:43;101503.72;;;33.10
27986;BMP280;15453;53.692;10.168;2023-09-08T13:33:09;101500.94;;;33.13
27986;BMP280;15453;53.692;10.168;2023-09-08T13:35:35;101502.19;;;33.16
27986;BMP280;15453;53.692;10.168;2023-09-08T13:38:01;101505.06;;;33.19
27986;BMP280;15453;53.692;10.168;2023-09-08T13:40:28;101495.44;;;33.27
27986;BMP280;15453;53.692;10.168;2023-09-08T13:42:53;101495.44;;;33.27
27986;BMP280;15453;53.692;10.168;2023-09-08T13:45:18;101490.16;;;33.26
27986;BMP280;15453;53.692;10.168;2023-09-08T13:47:44;101481.72;;;33.29
27986;BMP280;15453;53.692;10.168;2023-09-08T13:50:09;101479.81;;;33.37
27986;BMP280;15453;53.692;10.168;2023-09-08T13:52:40;101479.81;;;33.37
27986;BMP280;15453;53.692;10.168;2023-09-08T13:55:12;101474.50;;;33.35
27986;BMP280;15453;53.692;10.168;2023-09-08T13:57:38;101477.38;;;33.39
27986;BMP280;15453;53.692;10.168;2023-09-08T14:00:04;101473.41;;;33.43
27986;BMP280;15453;53.692;10.168;2023-09-08T14:02:33;101468.97;;;33.46